sensor_id;sensor_type;location;lat;lon;timestamp;P1;durP1;ratioP1;P2;durP2;ratioP2
3997;SDS011;61314;53.444;9.902;2023-06-22T00:01:46;5.23;;;4.73;;
3997;SDS011;61314;53.444;9.902;2023-06-22T00:04:13;5.00;;;4.60;;
3997;SDS011;61314;53.444;9.902;2023-06-22T00:06:40;6.87;;;4.83;;
3997;SDS011;61314;53.444;9.902;2023-06-22T00:09:08;4.53;;;4.03;;
3997;SDS011;61314;53.444;9.902;2023-06-22T00:11:36;7.07;;;4.90;;
3997;SDS011;61314;53.444;9.902;2023-06-22T00:14:04;4.73;;;4.33;;
3997;SDS011;61314;53.444;9.902;2023-06-22T00:16:31;5.27;;;4.83;;
3997;SDS011;61314;53.444;9.902;2023-06-22T00:18:58;4.40;;;4.10;;
3997;SDS011;61314;53.444;9.902;2023-06-22T00:21:27;5.20;;;4.70;;
3997;SDS011;61314;53.444;9.902;2023-06-22T00:23:54;6.53;;;4.87;;
3997;SDS011;61314;53.444;9.902;2023-06-22T00:26:21;4.50;;;4.20;;
3997;SDS011;61314;53.444;9.902;2023-06-22T00:28:48;5.63;;;5.13;;
3997;SDS011;61314;53.444;9.902;2023-06-22T00:31:15;4.67;;;4.27;;
3997;SDS011;61314;53.444;9.902;2023-06-22T00:33:42;6.77;;;4.40;;
3997;SDS011;61314;53.444;9.902;2023-06-22T00:36:09;4.53;;;4.23;;
3997;SDS011;61314;53.444;9.902;2023-06-22T00:38:39;6.47;;;4.90;;
3997;SDS011;61314;53.444;9.902;2023-06-22T00:41:06;4.80;;;4.40;;
3997;SDS011;61314;53.444;9.902;2023-06-22T00:43:33;8.40;;;5.23;;
3997;SDS011;61314;53.444;9.902;2023-06-22T00:46:00;4.57;;;4.27;;
3997;SDS011;61314;53.444;9.902;2023-06-22T00:48:27;5.50;;;5.10;;
3997;SDS011;61314;53.444;9.902;2023-06-22T00:50:54;4.60;;;4.20;;
3997;SDS011;61314;53.444;9.902;2023-06-22T00:53:22;4.17;;;3.87;;
3997;SDS011;61314;53.444;9.902;2023-06-22T00:55:49;8.27;;;4.90;;
3997;SDS011;61314;53.444;9.902;2023-06-22T00:58:18;5.53;;;5.13;;
3997;SDS011;61314;53.444;9.902;2023-06-22T01:00:47;4.63;;;4.33;;
3997;SDS011;61314;53.444;9.902;2023-06-22T01:03:15;5.57;;;4.90;;
3997;SDS011;61314;53.444;9.902;2023-06-22T01:05:43;4.53;;;4.13;;
3997;SDS011;61314;53.444;9.902;2023-06-22T01:10:48;4.70;;;4.30;;
3997;SDS011;61314;53.444;9.902;2023-06-22T01:13:26;4.50;;;4.20;;
3997;SDS011;61314;53.444;9.902;2023-06-22T01:16:02;4.70;;;4.37;;
3997;SDS011;61314;53.444;9.902;2023-06-22T01:18:30;4.73;;;4.37;;
3997;SDS011;61314;53.444;9.902;2023-06-22T01:20:57;5.23;;;4.73;;
3997;SDS011;61314;53.444;9.902;2023-06-22T01:26:05;4.57;;;4.27;;
3997;SDS011;61314;53.444;9.902;2023-06-22T01:28:41;7.60;;;4.47;;
3997;SDS011;61314;53.444;9.902;2023-06-22T01:31:10;4.27;;;3.97;;
3997;SDS011;61314;53.444;9.902;2023-06-22T01:33:37;4.30;;;4.00;;
3997;SDS011;61314;53.444;9.902;2023-06-22T01:36:05;4.73;;;4.20;;
3997;SDS011;61314;53.444;9.902;2023-06-22T01:38:33;4.97;;;4.57;;
3997;SDS011;61314;53.444;9.902;2023-06-22T01:41:02;4.73;;;4.40;;
3997;SDS011;61314;53.444;9.902;2023-06-22T01:43:29;5.10;;;4.60;;
3997;SDS011;61314;53.444;9.902;2023-06-22T01:45:57;4.70;;;4.40;;
3997;SDS011;61314;53.444;9.902;2023-06-22T01:48:24;5.87;;;4.53;;
3997;SDS011;61314;53.444;9.902;2023-06-22T01:50:52;4.90;;;4.40;;
3997;SDS011;61314;53.444;9.902;2023-06-22T01:53:20;4.70;;;4.33;;
3997;SDS011;61314;53.444;9.902;2023-06-22T01:55:48;4.63;;;4.33;;
3997;SDS011;61314;53.444;9.902;2023-06-22T01:58:15;5.27;;;4.50;;
3997;SDS011;61314;53.444;9.902;2023-06-22T02:00:44;10.40;;;5.83;;
3997;SDS011;61314;53.444;9.902;2023-06-22T02:03:14;5.33;;;4.67;;
3997;SDS011;61314;53.444;9.902;2023-06-22T02:05:49;4.90;;;4.50;;
3997;SDS011;61314;53.444;9.902;2023-06-22T02:08:20;4.60;;;4.20;;
3997;SDS011;61314;53.444;9.902;2023-06-22T02:10:48;5.67;;;4.23;;
3997;SDS011;61314;53.444;9.902;2023-06-22T02:13:15;4.80;;;4.40;;
3997;SDS011;61314;53.444;9.902;2023-06-22T02:15:42;4.47;;;4.17;;
3997;SDS011;61314;53.444;9.902;2023-06-22T02:18:10;5.23;;;4.43;;
3997;SDS011;61314;53.444;9.902;2023-06-22T02:20:37;5.87;;;5.37;;
3997;SDS011;61314;53.444;9.902;2023-06-22T02:23:04;4.70;;;4.40;;
3997;SDS011;61314;53.444;9.902;2023-06-22T02:25:32;4.90;;;4.50;;
3997;SDS011;61314;53.444;9.902;2023-06-22T02:27:59;4.00;;;3.70;;
3997;SDS011;61314;53.444;9.902;2023-06-22T02:30:26;8.00;;;4.57;;
3997;SDS011;61314;53.444;9.902;2023-06-22T02:32:54;6.00;;;4.53;;
3997;SDS011;61314;53.444;9.902;2023-06-22T02:35:25;5.17;;;4.67;;
3997;SDS011;61314;53.444;9.902;2023-06-22T02:37:53;5.23;;;4.73;;
3997;SDS011;61314;53.444;9.902;2023-06-22T02:40:20;5.60;;;5.20;;
3997;SDS011;61314;53.444;9.902;2023-06-22T02:42:47;4.80;;;4.40;;
3997;SDS011;61314;53.444;9.902;2023-06-22T02:45:14;5.30;;;4.90;;
3997;SDS011;61314;53.444;9.902;2023-06-22T02:47:41;4.50;;;4.20;;
3997;SDS011;61314;53.444;9.902;2023-06-22T02:50:08;7.40;;;4.90;;
3997;SDS011;61314;53.444;9.902;2023-06-22T02:52:35;8.37;;;5.10;;
3997;SDS011;61314;53.444;9.902;2023-06-22T02:55:03;6.03;;;5.00;;
3997;SDS011;61314;53.444;9.902;2023-06-22T02:57:30;5.17;;;4.73;;
3997;SDS011;61314;53.444;9.902;2023-06-22T02:59:57;7.80;;;5.20;;
3997;SDS011;61314;53.444;9.902;2023-06-22T03:02:24;8.03;;;5.83;;
3997;SDS011;61314;53.444;9.902;2023-06-22T03:04:52;5.43;;;4.93;;
3997;SDS011;61314;53.444;9.902;2023-06-22T03:07:20;4.63;;;4.23;;
3997;SDS011;61314;53.444;9.902;2023-06-22T03:09:47;5.70;;;5.20;;
3997;SDS011;61314;53.444;9.902;2023-06-22T03:12:14;5.60;;;5.10;;
3997;SDS011;61314;53.444;9.902;2023-06-22T03:14:41;6.00;;;5.37;;
3997;SDS011;61314;53.444;9.902;2023-06-22T03:17:08;8.43;;;5.73;;
3997;SDS011;61314;53.444;9.902;2023-06-22T03:19:36;5.37;;;4.90;;
3997;SDS011;61314;53.444;9.902;2023-06-22T03:22:03;6.80;;;5.80;;
3997;SDS011;61314;53.444;9.902;2023-06-22T03:24:30;5.63;;;5.17;;
3997;SDS011;61314;53.444;9.902;2023-06-22T03:26:57;5.43;;;5.00;;
3997;SDS011;61314;53.444;9.902;2023-06-22T03:29:23;6.80;;;5.57;;
3997;SDS011;61314;53.444;9.902;2023-06-22T03:31:54;5.83;;;5.33;;
3997;SDS011;61314;53.444;9.902;2023-06-22T03:34:20;5.60;;;5.20;;
3997;SDS011;61314;53.444;9.902;2023-06-22T03:36:47;5.50;;;4.63;;
3997;SDS011;61314;53.444;9.902;2023-06-22T03:39:13;5.93;;;5.30;;
3997;SDS011;61314;53.444;9.902;2023-06-22T03:41:40;6.10;;;5.50;;
3997;SDS011;61314;53.444;9.902;2023-06-22T03:44:07;6.90;;;6.00;;
3997;SDS011;61314;53.444;9.902;2023-06-22T03:46:36;6.70;;;5.70;;
3997;SDS011;61314;53.444;9.902;2023-06-22T03:49:03;6.57;;;6.03;;
3997;SDS011;61314;53.444;9.902;2023-06-22T03:51:31;6.00;;;5.50;;
3997;SDS011;61314;53.444;9.902;2023-06-22T03:53:58;7.03;;;5.17;;
3997;SDS011;61314;53.444;9.902;2023-06-22T03:56:25;6.30;;;5.73;;
3997;SDS011;61314;53.444;9.902;2023-06-22T03:58:52;5.20;;;4.70;;
3997;SDS011;61314;53.444;9.902;2023-06-22T04:01:19;6.20;;;5.70;;
3997;SDS011;61314;53.444;9.902;2023-06-22T04:03:46;7.40;;;5.70;;
3997;SDS011;61314;53.444;9.902;2023-06-22T04:06:15;6.03;;;5.53;;
3997;SDS011;61314;53.444;9.902;2023-06-22T04:08:44;7.23;;;5.47;;
3997;SDS011;61314;53.444;9.902;2023-06-22T04:11:14;6.27;;;5.57;;
3997;SDS011;61314;53.444;9.902;2023-06-22T04:13:41;8.90;;;6.40;;
3997;SDS011;61314;53.444;9.902;2023-06-22T04:16:08;6.53;;;5.90;;
3997;SDS011;61314;53.444;9.902;2023-06-22T04:18:35;8.40;;;6.50;;
3997;SDS011;61314;53.444;9.902;2023-06-22T04:21:02;14.80;;;6.33;;
3997;SDS011;61314;53.444;9.902;2023-06-22T04:23:29;8.53;;;6.53;;
3997;SDS011;61314;53.444;9.902;2023-06-22T04:25:56;5.70;;;5.20;;
3997;SDS011;61314;53.444;9.902;2023-06-22T04:28:24;7.70;;;5.83;;
3997;SDS011;61314;53.444;9.902;2023-06-22T04:30:53;6.80;;;5.53;;
3997;SDS011;61314;53.444;9.902;2023-06-22T04:33:28;7.10;;;5.33;;
3997;SDS011;61314;53.444;9.902;2023-06-22T04:35:56;5.70;;;5.10;;
3997;SDS011;61314;53.444;9.902;2023-06-22T04:38:23;9.70;;;6.37;;
3997;SDS011;61314;53.444;9.902;2023-06-22T04:40:50;8.30;;;6.30;;
3997;SDS011;61314;53.444;9.902;2023-06-22T04:43:19;8.83;;;7.40;;
3997;SDS011;61314;53.444;9.902;2023-06-22T04:45:46;12.07;;;6.57;;
3997;SDS011;61314;53.444;9.902;2023-06-22T04:48:18;11.90;;;6.30;;
3997;SDS011;61314;53.444;9.902;2023-06-22T04:50:45;5.73;;;4.90;;
3997;SDS011;61314;53.444;9.902;2023-06-22T04:53:12;7.93;;;5.50;;
3997;SDS011;61314;53.444;9.902;2023-06-22T04:55:40;6.40;;;5.73;;
3997;SDS011;61314;53.444;9.902;2023-06-22T04:58:07;6.00;;;5.50;;
3997;SDS011;61314;53.444;9.902;2023-06-22T05:00:34;8.40;;;6.30;;
3997;SDS011;61314;53.444;9.902;2023-06-22T05:03:04;8.37;;;6.60;;
3997;SDS011;61314;53.444;9.902;2023-06-22T05:05:45;7.67;;;6.10;;
3997;SDS011;61314;53.444;9.902;2023-06-22T05:08:13;7.17;;;6.47;;
3997;SDS011;61314;53.444;9.902;2023-06-22T05:10:40;7.50;;;6.70;;
3997;SDS011;61314;53.444;9.902;2023-06-22T05:13:24;8.17;;;7.33;;
3997;SDS011;61314;53.444;9.902;2023-06-22T05:15:52;10.77;;;8.70;;
3997;SDS011;61314;53.444;9.902;2023-06-22T05:18:27;8.37;;;7.57;;
3997;SDS011;61314;53.444;9.902;2023-06-22T05:20:55;7.33;;;6.73;;
3997;SDS011;61314;53.444;9.902;2023-06-22T05:23:22;12.30;;;7.73;;
3997;SDS011;61314;53.444;9.902;2023-06-22T05:25:50;9.50;;;8.00;;
3997;SDS011;61314;53.444;9.902;2023-06-22T05:28:17;10.53;;;8.47;;
3997;SDS011;61314;53.444;9.902;2023-06-22T05:30:49;12.47;;;8.37;;
3997;SDS011;61314;53.444;9.902;2023-06-22T05:33:16;8.83;;;8.00;;
3997;SDS011;61314;53.444;9.902;2023-06-22T05:35:44;9.30;;;7.70;;
3997;SDS011;61314;53.444;9.902;2023-06-22T05:38:11;10.33;;;7.63;;
3997;SDS011;61314;53.444;9.902;2023-06-22T05:40:37;9.00;;;7.10;;
3997;SDS011;61314;53.444;9.902;2023-06-22T05:43:04;12.33;;;6.93;;
3997;SDS011;61314;53.444;9.902;2023-06-22T05:45:31;9.33;;;7.10;;
3997;SDS011;61314;53.444;9.902;2023-06-22T05:47:58;10.30;;;7.07;;
3997;SDS011;61314;53.444;9.902;2023-06-22T05:50:26;6.90;;;6.27;;
3997;SDS011;61314;53.444;9.902;2023-06-22T05:52:53;7.63;;;6.17;;
3997;SDS011;61314;53.444;9.902;2023-06-22T05:55:20;8.67;;;6.80;;
3997;SDS011;61314;53.444;9.902;2023-06-22T05:57:47;7.53;;;6.67;;
3997;SDS011;61314;53.444;9.902;2023-06-22T06:00:14;11.23;;;6.60;;
3997;SDS011;61314;53.444;9.902;2023-06-22T06:02:41;8.70;;;5.80;;
3997;SDS011;61314;53.444;9.902;2023-06-22T06:05:11;7.67;;;5.63;;
3997;SDS011;61314;53.444;9.902;2023-06-22T06:07:40;6.77;;;6.07;;
3997;SDS011;61314;53.444;9.902;2023-06-22T06:10:08;9.67;;;5.53;;
3997;SDS011;61314;53.444;9.902;2023-06-22T06:12:35;6.07;;;5.10;;
3997;SDS011;61314;53.444;9.902;2023-06-22T06:15:02;10.63;;;5.37;;
3997;SDS011;61314;53.444;9.902;2023-06-22T06:17:30;7.67;;;6.40;;
3997;SDS011;61314;53.444;9.902;2023-06-22T06:19:59;7.13;;;5.47;;
3997;SDS011;61314;53.444;9.902;2023-06-22T06:22:26;6.00;;;5.50;;
3997;SDS011;61314;53.444;9.902;2023-06-22T06:24:53;6.83;;;5.03;;
3997;SDS011;61314;53.444;9.902;2023-06-22T06:27:20;9.53;;;5.40;;
3997;SDS011;61314;53.444;9.902;2023-06-22T06:29:47;6.90;;;5.63;;
3997;SDS011;61314;53.444;9.902;2023-06-22T06:32:15;9.70;;;6.43;;
3997;SDS011;61314;53.444;9.902;2023-06-22T06:34:42;5.07;;;4.60;;
3997;SDS011;61314;53.444;9.902;2023-06-22T06:37:09;6.10;;;4.93;;
3997;SDS011;61314;53.444;9.902;2023-06-22T06:39:36;7.90;;;6.53;;
3997;SDS011;61314;53.444;9.902;2023-06-22T06:42:04;6.40;;;5.17;;
3997;SDS011;61314;53.444;9.902;2023-06-22T06:44:32;5.13;;;4.63;;
3997;SDS011;61314;53.444;9.902;2023-06-22T06:46:59;5.57;;;5.00;;
3997;SDS011;61314;53.444;9.902;2023-06-22T06:49:26;5.23;;;4.73;;
3997;SDS011;61314;53.444;9.902;2023-06-22T06:51:54;7.70;;;6.30;;
3997;SDS011;61314;53.444;9.902;2023-06-22T06:54:22;6.40;;;4.73;;
3997;SDS011;61314;53.444;9.902;2023-06-22T06:56:49;6.73;;;5.20;;
3997;SDS011;61314;53.444;9.902;2023-06-22T06:59:16;4.40;;;4.00;;
3997;SDS011;61314;53.444;9.902;2023-06-22T07:01:43;4.33;;;3.90;;
3997;SDS011;61314;53.444;9.902;2023-06-22T07:04:11;8.63;;;4.03;;
3997;SDS011;61314;53.444;9.902;2023-06-22T07:06:38;3.70;;;3.40;;
3997;SDS011;61314;53.444;9.902;2023-06-22T07:09:05;4.37;;;3.97;;
3997;SDS011;61314;53.444;9.902;2023-06-22T07:11:33;5.57;;;4.63;;
3997;SDS011;61314;53.444;9.902;2023-06-22T07:14:01;9.43;;;4.90;;
3997;SDS011;61314;53.444;9.902;2023-06-22T07:16:28;6.63;;;4.90;;
3997;SDS011;61314;53.444;9.902;2023-06-22T07:18:57;4.53;;;3.83;;
3997;SDS011;61314;53.444;9.902;2023-06-22T07:21:24;6.90;;;4.90;;
3997;SDS011;61314;53.444;9.902;2023-06-22T07:23:51;4.77;;;4.33;;
3997;SDS011;61314;53.444;9.902;2023-06-22T07:26:18;5.40;;;5.00;;
3997;SDS011;61314;53.444;9.902;2023-06-22T07:28:45;8.00;;;3.80;;
3997;SDS011;61314;53.444;9.902;2023-06-22T07:31:12;5.03;;;4.63;;
3997;SDS011;61314;53.444;9.902;2023-06-22T07:33:39;4.50;;;4.10;;
3997;SDS011;61314;53.444;9.902;2023-06-22T07:36:06;4.27;;;3.87;;
3997;SDS011;61314;53.444;9.902;2023-06-22T07:38:34;4.07;;;3.77;;
3997;SDS011;61314;53.444;9.902;2023-06-22T07:41:01;4.07;;;3.53;;
3997;SDS011;61314;53.444;9.902;2023-06-22T07:43:31;5.30;;;3.57;;
3997;SDS011;61314;53.444;9.902;2023-06-22T07:46:00;3.63;;;3.33;;
3997;SDS011;61314;53.444;9.902;2023-06-22T07:48:27;4.73;;;3.80;;
3997;SDS011;61314;53.444;9.902;2023-06-22T07:50:54;5.33;;;3.70;;
3997;SDS011;61314;53.444;9.902;2023-06-22T07:53:21;4.77;;;4.27;;
3997;SDS011;61314;53.444;9.902;2023-06-22T07:55:49;8.47;;;3.57;;
3997;SDS011;61314;53.444;9.902;2023-06-22T07:58:16;4.13;;;3.60;;
3997;SDS011;61314;53.444;9.902;2023-06-22T08:00:45;8.23;;;3.80;;
3997;SDS011;61314;53.444;9.902;2023-06-22T08:03:12;4.90;;;3.80;;
3997;SDS011;61314;53.444;9.902;2023-06-22T08:05:39;4.93;;;4.10;;
3997;SDS011;61314;53.444;9.902;2023-06-22T08:08:06;5.27;;;3.67;;
3997;SDS011;61314;53.444;9.902;2023-06-22T08:10:33;5.47;;;3.53;;
3997;SDS011;61314;53.444;9.902;2023-06-22T08:13:02;4.87;;;4.00;;
3997;SDS011;61314;53.444;9.902;2023-06-22T08:15:29;7.20;;;4.43;;
3997;SDS011;61314;53.444;9.902;2023-06-22T08:17:56;2.93;;;2.73;;
3997;SDS011;61314;53.444;9.902;2023-06-22T08:20:25;6.63;;;4.03;;
3997;SDS011;61314;53.444;9.902;2023-06-22T08:22:52;3.67;;;3.23;;
3997;SDS011;61314;53.444;9.902;2023-06-22T08:25:20;3.97;;;3.57;;
3997;SDS011;61314;53.444;9.902;2023-06-22T08:27:47;3.43;;;2.97;;
3997;SDS011;61314;53.444;9.902;2023-06-22T08:30:15;3.70;;;3.40;;
3997;SDS011;61314;53.444;9.902;2023-06-22T08:32:43;6.60;;;3.30;;
3997;SDS011;61314;53.444;9.902;2023-06-22T08:35:10;4.30;;;3.20;;
3997;SDS011;61314;53.444;9.902;2023-06-22T08:37:37;4.77;;;3.83;;
3997;SDS011;61314;53.444;9.902;2023-06-22T08:40:06;3.03;;;2.83;;
3997;SDS011;61314;53.444;9.902;2023-06-22T08:42:35;4.80;;;4.10;;
3997;SDS011;61314;53.444;9.902;2023-06-22T08:45:02;7.07;;;3.23;;
3997;SDS011;61314;53.444;9.902;2023-06-22T08:47:29;4.00;;;3.20;;
3997;SDS011;61314;53.444;9.902;2023-06-22T08:49:56;6.23;;;3.50;;
3997;SDS011;61314;53.444;9.902;2023-06-22T08:52:23;3.33;;;3.13;;
3997;SDS011;61314;53.444;9.902;2023-06-22T08:54:50;3.40;;;3.10;;
3997;SDS011;61314;53.444;9.902;2023-06-22T08:57:17;6.63;;;3.63;;
3997;SDS011;61314;53.444;9.902;2023-06-22T08:59:44;4.40;;;3.40;;
3997;SDS011;61314;53.444;9.902;2023-06-22T09:02:12;3.10;;;2.90;;
3997;SDS011;61314;53.444;9.902;2023-06-22T09:04:39;5.53;;;3.40;;
3997;SDS011;61314;53.444;9.902;2023-06-22T09:07:06;3.10;;;2.90;;
3997;SDS011;61314;53.444;9.902;2023-06-22T09:09:33;7.27;;;4.23;;
3997;SDS011;61314;53.444;9.902;2023-06-22T09:12:00;3.60;;;3.37;;
3997;SDS011;61314;53.444;9.902;2023-06-22T09:14:27;5.97;;;4.20;;
3997;SDS011;61314;53.444;9.902;2023-06-22T09:16:54;4.83;;;3.20;;
3997;SDS011;61314;53.444;9.902;2023-06-22T09:19:21;3.80;;;3.50;;
3997;SDS011;61314;53.444;9.902;2023-06-22T09:21:49;7.63;;;3.30;;
3997;SDS011;61314;53.444;9.902;2023-06-22T09:24:16;3.60;;;3.30;;
3997;SDS011;61314;53.444;9.902;2023-06-22T09:26:43;3.40;;;3.10;;
3997;SDS011;61314;53.444;9.902;2023-06-22T09:29:10;3.20;;;2.90;;
3997;SDS011;61314;53.444;9.902;2023-06-22T09:31:37;4.17;;;3.70;;
3997;SDS011;61314;53.444;9.902;2023-06-22T09:34:05;6.70;;;3.63;;
3997;SDS011;61314;53.444;9.902;2023-06-22T09:36:32;3.63;;;3.23;;
3997;SDS011;61314;53.444;9.902;2023-06-22T09:38:59;3.73;;;3.33;;
3997;SDS011;61314;53.444;9.902;2023-06-22T09:41:31;3.10;;;2.90;;
3997;SDS011;61314;53.444;9.902;2023-06-22T09:43:59;4.37;;;2.97;;
3997;SDS011;61314;53.444;9.902;2023-06-22T09:46:26;4.37;;;2.87;;
3997;SDS011;61314;53.444;9.902;2023-06-22T09:48:54;7.40;;;4.40;;
3997;SDS011;61314;53.444;9.902;2023-06-22T09:51:21;3.57;;;3.10;;
3997;SDS011;61314;53.444;9.902;2023-06-22T09:53:49;3.40;;;3.10;;
3997;SDS011;61314;53.444;9.902;2023-06-22T09:56:16;4.03;;;3.63;;
3997;SDS011;61314;53.444;9.902;2023-06-22T09:58:44;5.27;;;3.30;;
3997;SDS011;61314;53.444;9.902;2023-06-22T10:01:12;3.97;;;3.33;;
3997;SDS011;61314;53.444;9.902;2023-06-22T10:03:43;4.37;;;3.03;;
3997;SDS011;61314;53.444;9.902;2023-06-22T10:06:10;5.77;;;3.40;;
3997;SDS011;61314;53.444;9.902;2023-06-22T10:08:37;3.17;;;2.97;;
3997;SDS011;61314;53.444;9.902;2023-06-22T10:11:05;4.47;;;2.70;;
3997;SDS011;61314;53.444;9.902;2023-06-22T10:13:32;3.73;;;3.43;;
3997;SDS011;61314;53.444;9.902;2023-06-22T10:15:59;3.73;;;3.33;;
3997;SDS011;61314;53.444;9.902;2023-06-22T10:18:26;4.20;;;3.57;;
3997;SDS011;61314;53.444;9.902;2023-06-22T10:20:53;5.47;;;4.97;;
3997;SDS011;61314;53.444;9.902;2023-06-22T10:23:20;3.90;;;3.60;;
3997;SDS011;61314;53.444;9.902;2023-06-22T10:25:47;3.77;;;3.57;;
3997;SDS011;61314;53.444;9.902;2023-06-22T10:28:14;4.60;;;3.43;;
3997;SDS011;61314;53.444;9.902;2023-06-22T10:30:42;3.40;;;3.10;;
3997;SDS011;61314;53.444;9.902;2023-06-22T10:33:09;11.00;;;4.50;;
3997;SDS011;61314;53.444;9.902;2023-06-22T10:35:37;4.57;;;3.50;;
3997;SDS011;61314;53.444;9.902;2023-06-22T10:38:04;6.23;;;3.90;;
3997;SDS011;61314;53.444;9.902;2023-06-22T10:40:32;4.50;;;4.00;;
3997;SDS011;61314;53.444;9.902;2023-06-22T10:42:59;8.97;;;3.00;;
3997;SDS011;61314;53.444;9.902;2023-06-22T10:45:26;3.50;;;3.20;;
3997;SDS011;61314;53.444;9.902;2023-06-22T10:47:54;3.50;;;3.20;;
3997;SDS011;61314;53.444;9.902;2023-06-22T10:50:22;3.80;;;3.50;;
3997;SDS011;61314;53.444;9.902;2023-06-22T10:52:50;3.77;;;3.40;;
3997;SDS011;61314;53.444;9.902;2023-06-22T10:55:17;4.27;;;3.97;;
3997;SDS011;61314;53.444;9.902;2023-06-22T10:57:44;3.77;;;3.40;;
3997;SDS011;61314;53.444;9.902;2023-06-22T11:00:13;3.83;;;3.53;;
3997;SDS011;61314;53.444;9.902;2023-06-22T11:02:41;5.20;;;4.70;;
3997;SDS011;61314;53.444;9.902;2023-06-22T11:05:09;4.27;;;3.93;;
3997;SDS011;61314;53.444;9.902;2023-06-22T11:07:37;3.80;;;3.40;;
3997;SDS011;61314;53.444;9.902;2023-06-22T11:10:09;6.03;;;3.70;;
3997;SDS011;61314;53.444;9.902;2023-06-22T11:12:36;3.60;;;3.33;;
3997;SDS011;61314;53.444;9.902;2023-06-22T11:15:03;5.77;;;3.90;;
3997;SDS011;61314;53.444;9.902;2023-06-22T11:17:30;4.93;;;3.43;;
3997;SDS011;61314;53.444;9.902;2023-06-22T11:19:57;5.00;;;4.17;;
3997;SDS011;61314;53.444;9.902;2023-06-22T11:22:26;4.30;;;3.90;;
3997;SDS011;61314;53.444;9.902;2023-06-22T11:24:53;4.27;;;3.97;;
3997;SDS011;61314;53.444;9.902;2023-06-22T11:27:21;4.13;;;3.80;;
3997;SDS011;61314;53.444;9.902;2023-06-22T11:29:48;4.57;;;4.27;;
3997;SDS011;61314;53.444;9.902;2023-06-22T11:32:15;4.23;;;3.90;;
3997;SDS011;61314;53.444;9.902;2023-06-22T11:34:42;5.03;;;4.63;;
3997;SDS011;61314;53.444;9.902;2023-06-22T11:37:09;4.60;;;3.70;;
3997;SDS011;61314;53.444;9.902;2023-06-22T11:39:37;4.90;;;4.50;;
3997;SDS011;61314;53.444;9.902;2023-06-22T11:42:13;7.30;;;4.10;;
3997;SDS011;61314;53.444;9.902;2023-06-22T11:44:40;4.57;;;4.17;;
3997;SDS011;61314;53.444;9.902;2023-06-22T11:47:07;5.77;;;5.27;;
3997;SDS011;61314;53.444;9.902;2023-06-22T11:49:34;4.57;;;4.27;;
3997;SDS011;61314;53.444;9.902;2023-06-22T11:52:01;4.40;;;4.10;;
3997;SDS011;61314;53.444;9.902;2023-06-22T11:54:28;6.13;;;4.90;;
3997;SDS011;61314;53.444;9.902;2023-06-22T11:56:55;8.33;;;4.43;;
3997;SDS011;61314;53.444;9.902;2023-06-22T11:59:22;5.60;;;5.23;;
3997;SDS011;61314;53.444;9.902;2023-06-22T12:01:49;5.10;;;4.70;;
3997;SDS011;61314;53.444;9.902;2023-06-22T12:04:17;4.20;;;3.80;;
3997;SDS011;61314;53.444;9.902;2023-06-22T12:06:44;7.03;;;4.67;;
3997;SDS011;61314;53.444;9.902;2023-06-22T12:09:11;4.27;;;3.97;;
3997;SDS011;61314;53.444;9.902;2023-06-22T12:11:39;5.10;;;4.30;;
3997;SDS011;61314;53.444;9.902;2023-06-22T12:14:06;5.33;;;4.50;;
3997;SDS011;61314;53.444;9.902;2023-06-22T12:16:33;4.90;;;4.50;;
3997;SDS011;61314;53.444;9.902;2023-06-22T12:19:01;6.27;;;4.53;;
3997;SDS011;61314;53.444;9.902;2023-06-22T12:21:28;5.13;;;4.67;;
3997;SDS011;61314;53.444;9.902;2023-06-22T12:23:55;6.23;;;5.40;;
3997;SDS011;61314;53.444;9.902;2023-06-22T12:26:22;5.70;;;4.90;;
3997;SDS011;61314;53.444;9.902;2023-06-22T12:28:49;6.13;;;5.00;;
3997;SDS011;61314;53.444;9.902;2023-06-22T12:31:16;5.97;;;5.50;;
3997;SDS011;61314;53.444;9.902;2023-06-22T12:33:44;4.67;;;4.33;;
3997;SDS011;61314;53.444;9.902;2023-06-22T12:36:11;6.40;;;5.80;;
3997;SDS011;61314;53.444;9.902;2023-06-22T12:38:38;5.97;;;5.53;;
3997;SDS011;61314;53.444;9.902;2023-06-22T12:41:05;5.67;;;5.17;;
3997;SDS011;61314;53.444;9.902;2023-06-22T12:43:32;6.33;;;5.53;;
3997;SDS011;61314;53.444;9.902;2023-06-22T12:45:59;5.40;;;5.00;;
3997;SDS011;61314;53.444;9.902;2023-06-22T12:48:26;6.53;;;4.90;;
3997;SDS011;61314;53.444;9.902;2023-06-22T12:50:54;5.77;;;5.23;;
3997;SDS011;61314;53.444;9.902;2023-06-22T12:53:21;5.73;;;5.23;;
3997;SDS011;61314;53.444;9.902;2023-06-22T12:55:49;5.90;;;5.47;;
3997;SDS011;61314;53.444;9.902;2023-06-22T12:58:16;6.00;;;5.37;;
3997;SDS011;61314;53.444;9.902;2023-06-22T13:00:44;6.27;;;5.67;;
3997;SDS011;61314;53.444;9.902;2023-06-22T13:03:11;6.67;;;6.17;;
3997;SDS011;61314;53.444;9.902;2023-06-22T13:05:38;4.83;;;4.43;;
3997;SDS011;61314;53.444;9.902;2023-06-22T13:08:05;5.90;;;5.50;;
3997;SDS011;61314;53.444;9.902;2023-06-22T13:10:38;6.43;;;5.57;;
3997;SDS011;61314;53.444;9.902;2023-06-22T13:13:05;5.97;;;5.57;;
3997;SDS011;61314;53.444;9.902;2023-06-22T13:15:32;5.20;;;4.70;;
3997;SDS011;61314;53.444;9.902;2023-06-22T13:18:00;5.60;;;5.13;;
3997;SDS011;61314;53.444;9.902;2023-06-22T13:20:28;6.30;;;5.70;;
3997;SDS011;61314;53.444;9.902;2023-06-22T13:22:55;6.27;;;5.43;;
3997;SDS011;61314;53.444;9.902;2023-06-22T13:25:22;5.73;;;5.23;;
3997;SDS011;61314;53.444;9.902;2023-06-22T13:27:53;6.47;;;5.20;;
3997;SDS011;61314;53.444;9.902;2023-06-22T13:30:20;6.73;;;5.97;;
3997;SDS011;61314;53.444;9.902;2023-06-22T13:32:47;6.53;;;6.03;;
3997;SDS011;61314;53.444;9.902;2023-06-22T13:35:14;5.67;;;5.27;;
3997;SDS011;61314;53.444;9.902;2023-06-22T13:37:41;6.33;;;5.83;;
3997;SDS011;61314;53.444;9.902;2023-06-22T13:40:08;5.57;;;5.07;;
3997;SDS011;61314;53.444;9.902;2023-06-22T13:42:35;5.57;;;5.00;;
3997;SDS011;61314;53.444;9.902;2023-06-22T13:45:03;5.30;;;5.00;;
3997;SDS011;61314;53.444;9.902;2023-06-22T13:47:30;5.73;;;5.23;;
3997;SDS011;61314;53.444;9.902;2023-06-22T13:49:57;6.07;;;5.50;;
3997;SDS011;61314;53.444;9.902;2023-06-22T13:52:25;8.40;;;5.97;;
3997;SDS011;61314;53.444;9.902;2023-06-22T13:54:52;5.20;;;4.80;;
3997;SDS011;61314;53.444;9.902;2023-06-22T13:57:19;5.53;;;5.13;;
3997;SDS011;61314;53.444;9.902;2023-06-22T13:59:46;6.20;;;5.60;;
3997;SDS011;61314;53.444;9.902;2023-06-22T14:02:13;6.87;;;4.93;;
3997;SDS011;61314;53.444;9.902;2023-06-22T14:04:40;6.87;;;4.80;;
3997;SDS011;61314;53.444;9.902;2023-06-22T14:07:08;5.10;;;4.80;;
3997;SDS011;61314;53.444;9.902;2023-06-22T14:09:35;5.90;;;5.40;;
3997;SDS011;61314;53.444;9.902;2023-06-22T14:12:08;5.77;;;5.40;;
3997;SDS011;61314;53.444;9.902;2023-06-22T14:14:35;7.53;;;6.80;;
3997;SDS011;61314;53.444;9.902;2023-06-22T14:17:02;6.40;;;6.00;;
3997;SDS011;61314;53.444;9.902;2023-06-22T14:19:30;6.63;;;6.03;;
3997;SDS011;61314;53.444;9.902;2023-06-22T14:21:57;6.80;;;6.10;;
3997;SDS011;61314;53.444;9.902;2023-06-22T14:24:24;8.30;;;5.80;;
3997;SDS011;61314;53.444;9.902;2023-06-22T14:26:54;6.23;;;5.20;;
3997;SDS011;61314;53.444;9.902;2023-06-22T14:29:22;7.00;;;5.53;;
3997;SDS011;61314;53.444;9.902;2023-06-22T14:31:51;6.63;;;6.03;;
3997;SDS011;61314;53.444;9.902;2023-06-22T14:34:18;6.07;;;5.47;;
3997;SDS011;61314;53.444;9.902;2023-06-22T14:36:45;5.70;;;5.30;;
3997;SDS011;61314;53.444;9.902;2023-06-22T14:39:12;7.00;;;6.33;;
3997;SDS011;61314;53.444;9.902;2023-06-22T14:41:40;6.37;;;5.77;;
3997;SDS011;61314;53.444;9.902;2023-06-22T14:44:07;6.70;;;6.10;;
3997;SDS011;61314;53.444;9.902;2023-06-22T14:46:34;6.97;;;6.33;;
3997;SDS011;61314;53.444;9.902;2023-06-22T14:49:02;6.97;;;6.30;;
3997;SDS011;61314;53.444;9.902;2023-06-22T14:51:31;7.40;;;6.60;;
3997;SDS011;61314;53.444;9.902;2023-06-22T14:53:58;7.43;;;6.67;;
3997;SDS011;61314;53.444;9.902;2023-06-22T14:56:25;6.53;;;5.93;;
3997;SDS011;61314;53.444;9.902;2023-06-22T14:58:53;6.23;;;5.83;;
3997;SDS011;61314;53.444;9.902;2023-06-22T15:01:20;7.27;;;6.53;;
3997;SDS011;61314;53.444;9.902;2023-06-22T15:03:47;7.43;;;6.23;;
3997;SDS011;61314;53.444;9.902;2023-06-22T15:06:14;7.07;;;6.47;;
3997;SDS011;61314;53.444;9.902;2023-06-22T15:08:42;6.90;;;6.20;;